Time,TemperatureF,DewpointF,PressureIn,WindDirection,WindDirectionDegrees,WindSpeedMPH,WindSpeedGustMPH,Humidity,HourlyPrecipIn,Conditions,Clouds,dailyrainin,SolarRadiationWatts/m^2,SoftwareType,DateUTC
2013-03-26 00:12:00,31.0,20.0,-100.00,NW,311,9.0,14.0,62,0.00,,,0.00,0.000000,,2013-03-26 05:12:00,
2013-03-26 00:22:00,31.0,20.0,-100.00,NW,311,9.0,14.0,62,0.00,,,0.00,0.000000,,2013-03-26 05:22:00,
2013-03-26 00:32:00,31.0,20.0,-100.00,NW,311,9.0,14.0,62,0.00,,,0.00,0.000000,,2013-03-26 05:32:00,
2013-03-26 00:42:00,31.0,20.0,-100.00,NW,311,9.0,14.0,62,0.00,,,0.00,0.000000,,2013-03-26 05:42:00,
2013-03-26 01:12:00,30.0,19.0,-100.00,NNW,334,6.0,11.0,64,0.00,,,0.00,0.000000,,2013-03-26 06:12:00,
2013-03-26 01:22:00,30.0,19.0,-100.00,NNW,334,6.0,11.0,64,0.00,,,0.00,0.000000,,2013-03-26 06:22:00,
2013-03-26 01:32:00,30.0,19.0,-100.00,NNW,334,6.0,11.0,64,0.00,,,0.00,0.000000,,2013-03-26 06:32:00,
2013-03-26 01:42:00,30.0,19.0,-100.00,NNW,334,6.0,11.0,64,0.00,,,0.00,0.000000,,2013-03-26 06:42:00,
2013-03-26 02:12:00,30.0,18.0,-100.00,North,2,3.0,13.0,60,0.00,,,0.00,0.000000,,2013-03-26 07:12:00,
2013-03-26 02:22:00,30.0,18.0,-100.00,North,2,3.0,13.0,60,0.00,,,0.00,0.000000,,2013-03-26 07:22:00,
2013-03-26 02:33:00,30.0,18.0,-100.00,North,2,3.0,13.0,60,0.00,,,0.00,0.000000,,2013-03-26 07:33:00,
2013-03-26 02:42:00,30.0,18.0,-100.00,North,2,3.0,13.0,60,0.00,,,0.00,0.000000,,2013-03-26 07:42:00,
2013-03-26 03:12:00,30.0,18.0,-100.00,NNW,336,5.0,9.0,60,0.00,,,0.00,0.000000,,2013-03-26 08:12:00,
2013-03-26 03:22:00,30.0,18.0,-100.00,NNW,336,5.0,9.0,60,0.00,,,0.00,0.000000,,2013-03-26 08:22:00,
2013-03-26 03:32:00,30.0,18.0,-100.00,NNW,336,5.0,9.0,60,0.00,,,0.00,0.000000,,2013-03-26 08:32:00,
2013-03-26 03:42:00,30.0,18.0,-100.00,NNW,336,5.0,9.0,60,0.00,,,0.00,0.000000,,2013-03-26 08:42:00,
2013-03-26 04:12:00,29.0,19.0,-100.00,NW,315,6.0,11.0,65,0.00,,,0.00,0.000000,,2013-03-26 09:12:00,
2013-03-26 04:22:00,29.0,19.0,-100.00,NW,315,6.0,11.0,65,0.00,,,0.00,0.000000,,2013-03-26 09:22:00,
2013-03-26 04:33:00,29.0,19.0,-100.00,NW,315,6.0,11.0,65,0.00,,,0.00,0.000000,,2013-03-26 09:33:00,
2013-03-26 04:42:00,29.0,19.0,-100.00,NW,315,6.0,11.0,65,0.00,,,0.00,0.000000,,2013-03-26 09:42:00,
2013-03-26 05:12:00,28.0,18.0,-100.00,NW,320,7.0,10.0,66,0.00,,,0.00,0.000000,,2013-03-26 10:12:00,
2013-03-26 05:22:00,28.0,18.0,-100.00,NW,320,7.0,10.0,66,0.00,,,0.00,0.000000,,2013-03-26 10:22:00,
2013-03-26 05:32:00,28.0,18.0,-100.00,NW,320,7.0,10.0,66,0.00,,,0.00,0.000000,,2013-03-26 10:32:00,
2013-03-26 05:42:00,28.0,18.0,-100.00,NW,320,7.0,10.0,66,0.00,,,0.00,0.000000,,2013-03-26 10:42:00,
2013-03-26 06:12:00,28.0,18.0,-100.00,NW,312,7.0,10.0,66,0.00,,,0.00,0.000000,,2013-03-26 11:12:00,
2013-03-26 06:22:00,28.0,18.0,-100.00,NW,312,7.0,10.0,66,0.00,,,0.00,0.000000,,2013-03-26 11:22:00,
2013-03-26 06:32:00,28.0,18.0,-100.00,NW,312,7.0,10.0,66,0.00,,,0.00,0.000000,,2013-03-26 11:32:00,
2013-03-26 06:42:00,28.0,18.0,-100.00,NW,312,7.0,10.0,66,0.00,,,0.00,0.000000,,2013-03-26 11:42:00,
2013-03-26 07:12:00,27.0,18.0,-100.00,WNW,303,6.0,10.0,68,0.00,,,0.00,0.000000,,2013-03-26 12:12:00,
2013-03-26 07:22:00,27.0,18.0,-100.00,WNW,303,6.0,10.0,68,0.00,,,0.00,0.000000,,2013-03-26 12:22:00,
2013-03-26 07:32:00,27.0,18.0,-100.00,WNW,303,6.0,10.0,68,0.00,,,0.00,0.000000,,2013-03-26 12:32:00,
2013-03-26 07:42:00,27.0,18.0,-100.00,WNW,303,6.0,10.0,68,0.00,,,0.00,0.000000,,2013-03-26 12:42:00,
2013-03-26 08:12:00,27.0,18.0,-100.00,WNW,299,6.0,9.0,69,0.00,,,0.00,15.000000,,2013-03-26 13:12:00,
2013-03-26 08:22:00,27.0,18.0,-100.00,WNW,299,6.0,9.0,69,0.00,,,0.00,15.000000,,2013-03-26 13:22:00,
2013-03-26 08:32:00,27.0,18.0,-100.00,WNW,299,6.0,9.0,69,0.00,,,0.00,15.000000,,2013-03-26 13:32:00,
2013-03-26 08:42:00,27.0,18.0,-100.00,WNW,299,6.0,9.0,69,0.00,,,0.00,15.000000,,2013-03-26 13:42:00,
2013-03-26 09:11:00,29.0,20.0,-100.00,NW,326,8.0,12.0,68,0.00,,,0.00,90.000000,,2013-03-26 14:11:00,
2013-03-26 09:22:00,29.0,20.0,-100.00,NW,326,8.0,12.0,68,0.00,,,0.00,90.000000,,2013-03-26 14:22:00,
2013-03-26 09:32:00,29.0,20.0,-100.00,NW,326,8.0,12.0,68,0.00,,,0.00,90.000000,,2013-03-26 14:32:00,
2013-03-26 09:42:00,29.0,20.0,-100.00,NW,326,8.0,12.0,68,0.00,,,0.00,90.000000,,2013-03-26 14:42:00,
2013-03-26 10:12:00,32.0,24.0,-100.00,NNW,328,8.0,12.0,71,0.00,,,0.00,199.000000,,2013-03-26 15:12:00,
2013-03-26 10:22:00,32.0,24.0,-100.00,NNW,328,8.0,12.0,71,0.00,,,0.00,199.000000,,2013-03-26 15:22:00,
2013-03-26 10:33:00,32.0,24.0,-100.00,NNW,328,8.0,12.0,71,0.00,,,0.00,199.000000,,2013-03-26 15:33:00,
2013-03-26 10:43:00,32.0,24.0,-100.00,NNW,328,8.0,12.0,71,0.00,,,0.00,199.000000,,2013-03-26 15:43:00,
2013-03-26 11:13:00,37.0,24.0,-100.00,NNW,327,11.0,15.0,59,0.00,,,-99.99,357.000000,,2013-03-26 16:13:00,
2013-03-26 11:22:00,37.0,24.0,-100.00,NNW,327,11.0,15.0,59,0.00,,,-99.99,357.000000,,2013-03-26 16:22:00,
2013-03-26 11:32:00,37.0,24.0,-100.00,NNW,327,11.0,15.0,59,0.00,,,-99.99,357.000000,,2013-03-26 16:32:00,
2013-03-26 11:42:00,37.0,24.0,-100.00,NNW,327,11.0,15.0,59,0.00,,,-99.99,357.000000,,2013-03-26 16:42:00,
2013-03-26 12:12:00,41.0,23.0,-100.00,NNW,334,8.0,15.0,49,0.00,,,0.00,595.000000,,2013-03-26 17:12:00,
2013-03-26 12:23:00,41.0,23.0,-100.00,NNW,334,8.0,15.0,49,0.00,,,0.00,595.000000,,2013-03-26 17:23:00,
2013-03-26 12:32:00,41.0,23.0,-100.00,NNW,334,8.0,15.0,49,0.00,,,0.00,595.000000,,2013-03-26 17:32:00,
2013-03-26 12:42:00,41.0,23.0,-100.00,NNW,334,8.0,15.0,49,0.00,,,0.00,595.000000,,2013-03-26 17:42:00,
2013-03-26 13:12:00,42.0,22.0,-100.00,NNW,337,9.0,16.0,44,0.00,,,0.00,701.000000,,2013-03-26 18:12:00,
2013-03-26 13:23:00,42.0,22.0,-100.00,NNW,337,9.0,16.0,44,0.00,,,0.00,701.000000,,2013-03-26 18:23:00,
2013-03-26 13:34:00,42.0,22.0,-100.00,NNW,337,9.0,16.0,44,0.00,,,0.00,701.000000,,2013-03-26 18:34:00,
2013-03-26 13:42:00,42.0,22.0,-100.00,NNW,337,9.0,16.0,44,0.00,,,0.00,701.000000,,2013-03-26 18:42:00,
2013-03-26 14:12:00,40.0,20.0,-100.00,NNW,334,10.0,16.0,44,0.00,,,0.00,385.000000,,2013-03-26 19:12:00,
2013-03-26 14:22:00,40.0,20.0,-100.00,NNW,334,10.0,16.0,44,0.00,,,0.00,385.000000,,2013-03-26 19:22:00,
2013-03-26 14:32:00,40.0,20.0,-100.00,NNW,334,10.0,16.0,44,0.00,,,0.00,385.000000,,2013-03-26 19:32:00,
2013-03-26 14:42:00,40.0,20.0,-100.00,NNW,334,10.0,16.0,44,0.00,,,0.00,385.000000,,2013-03-26 19:42:00,
2013-03-26 15:13:00,40.0,18.0,-100.00,NW,325,10.0,16.0,40,0.00,,,0.00,364.000000,,2013-03-26 20:13:00,
2013-03-26 15:22:00,40.0,18.0,-100.00,NW,325,10.0,16.0,40,0.00,,,0.00,364.000000,,2013-03-26 20:22:00,
2013-03-26 15:32:00,40.0,18.0,-100.00,NW,325,10.0,16.0,40,0.00,,,0.00,364.000000,,2013-03-26 20:32:00,
2013-03-26 15:42:00,40.0,18.0,-100.00,NW,325,10.0,16.0,40,0.00,,,0.00,364.000000,,2013-03-26 20:42:00,
2013-03-26 16:12:00,40.0,18.0,-100.00,WNW,292,8.0,14.0,40,0.00,,,0.00,328.000000,,2013-03-26 21:12:00,
2013-03-26 16:22:00,40.0,18.0,-100.00,WNW,292,8.0,14.0,40,0.00,,,0.00,328.000000,,2013-03-26 21:22:00,
2013-03-26 16:33:00,40.0,18.0,-100.00,WNW,292,8.0,14.0,40,0.00,,,0.00,328.000000,,2013-03-26 21:33:00,
2013-03-26 16:42:00,40.0,18.0,-100.00,WNW,292,8.0,14.0,40,0.00,,,0.00,328.000000,,2013-03-26 21:42:00,
2013-03-26 17:12:00,38.0,18.0,-100.00,WNW,291,10.0,15.0,44,0.00,,,0.00,226.000000,,2013-03-26 22:12:00,
2013-03-26 17:22:00,38.0,18.0,-100.00,WNW,291,10.0,15.0,44,0.00,,,0.00,226.000000,,2013-03-26 22:22:00,
2013-03-26 17:33:00,38.0,18.0,-100.00,WNW,291,10.0,15.0,44,0.00,,,0.00,226.000000,,2013-03-26 22:33:00,
2013-03-26 17:42:00,38.0,18.0,-100.00,WNW,291,10.0,15.0,44,0.00,,,0.00,226.000000,,2013-03-26 22:42:00,
2013-03-26 18:10:00,37.0,18.0,-100.00,WNW,294,9.0,17.0,45,0.00,,,0.00,154.000000,,2013-03-26 23:10:00,
2013-03-26 18:22:00,37.0,18.0,-100.00,WNW,294,9.0,17.0,45,0.00,,,0.00,154.000000,,2013-03-26 23:22:00,
2013-03-26 18:32:00,37.0,18.0,-100.00,WNW,294,9.0,17.0,45,0.00,,,0.00,154.000000,,2013-03-26 23:32:00,
2013-03-26 18:42:00,37.0,18.0,-100.00,WNW,294,9.0,17.0,45,0.00,,,0.00,154.000000,,2013-03-26 23:42:00,
2013-03-26 19:12:00,36.0,18.0,-100.00,WNW,285,7.0,13.0,47,0.00,,,0.00,61.000000,,2013-03-27 00:12:00,
2013-03-26 19:22:00,36.0,18.0,-100.00,WNW,285,7.0,13.0,47,0.00,,,0.00,61.000000,,2013-03-27 00:22:00,
2013-03-26 19:32:00,36.0,18.0,-100.00,WNW,285,7.0,13.0,47,0.00,,,0.00,61.000000,,2013-03-27 00:32:00,
2013-03-26 19:42:00,36.0,18.0,-100.00,WNW,285,7.0,13.0,47,0.00,,,0.00,61.000000,,2013-03-27 00:42:00,
2013-03-26 20:12:00,35.0,17.0,-100.00,West,271,4.0,9.0,48,0.00,,,0.00,7.000000,,2013-03-27 01:12:00,
2013-03-26 20:23:00,35.0,17.0,-100.00,West,271,4.0,9.0,48,0.00,,,0.00,7.000000,,2013-03-27 01:23:00,
2013-03-26 20:33:00,35.0,17.0,-100.00,West,271,4.0,9.0,48,0.00,,,0.00,7.000000,,2013-03-27 01:33:00,
2013-03-26 20:42:00,35.0,17.0,-100.00,West,271,4.0,9.0,48,0.00,,,0.00,7.000000,,2013-03-27 01:42:00,
2013-03-26 21:12:00,34.0,19.0,-100.00,West,272,4.0,5.0,53,0.00,,,0.00,0.000000,,2013-03-27 02:12:00,
2013-03-26 21:22:00,34.0,19.0,-100.00,West,272,4.0,5.0,53,0.00,,,0.00,0.000000,,2013-03-27 02:22:00,
2013-03-26 21:32:00,34.0,19.0,-100.00,West,272,4.0,5.0,53,0.00,,,0.00,0.000000,,2013-03-27 02:32:00,
2013-03-26 21:42:00,34.0,19.0,-100.00,West,272,4.0,5.0,53,0.00,,,0.00,0.000000,,2013-03-27 02:42:00,
2013-03-26 22:12:00,33.0,16.0,-100.00,West,260,3.0,5.0,50,0.00,,,0.00,0.000000,,2013-03-27 03:12:00,
2013-03-26 22:22:00,33.0,16.0,-100.00,West,260,3.0,5.0,50,0.00,,,0.00,0.000000,,2013-03-27 03:22:00,
2013-03-26 22:33:00,33.0,16.0,-100.00,West,260,3.0,5.0,50,0.00,,,0.00,0.000000,,2013-03-27 03:33:00,
2013-03-26 22:42:00,33.0,16.0,-100.00,West,260,3.0,5.0,50,0.00,,,0.00,0.000000,,2013-03-27 03:42:00,
2013-03-26 23:13:00,32.0,19.0,-100.00,West,267,3.0,4.0,59,0.00,,,0.00,0.000000,,2013-03-27 04:13:00,
2013-03-26 23:23:00,32.0,19.0,-100.00,West,267,3.0,4.0,59,0.00,,,0.00,0.000000,,2013-03-27 04:23:00,
2013-03-26 23:33:00,32.0,19.0,-100.00,West,267,3.0,4.0,59,0.00,,,0.00,0.000000,,2013-03-27 04:33:00,
2013-03-26 23:42:00,32.0,19.0,-100.00,West,267,3.0,4.0,59,0.00,,,0.00,0.000000,,2013-03-27 04:42:00,